createdAt,value
2022-11-19T00:01:02.688Z,0.4
2022-11-19T00:02:12.478Z,0.6
2022-11-19T00:03:20.060Z,0.6
2022-11-19T00:04:30.748Z,0.7
2022-11-19T00:05:39.465Z,0.9
2022-11-19T00:06:47.163Z,0.8
2022-11-19T00:07:56.849Z,0.6
2022-11-19T00:09:05.544Z,0.7
2022-11-19T00:10:14.250Z,0.8
2022-11-19T00:11:23.922Z,0.8
2022-11-19T00:12:31.588Z,0.5
2022-11-19T00:13:41.283Z,0.7
2022-11-19T00:14:50.068Z,0.4
2022-11-19T00:15:58.800Z,0.6
2022-11-19T00:17:08.465Z,0.4
2022-11-19T00:18:17.131Z,0.6
2022-11-19T00:19:25.829Z,0.4
2022-11-19T00:20:35.515Z,0.3
2022-11-19T00:21:43.213Z,0.3
2022-11-19T00:22:52.926Z,0.4
2022-11-19T00:24:01.589Z,0.4
2022-11-19T00:25:09.254Z,0.3
2022-11-19T00:26:18.929Z,0.4
2022-11-19T00:27:26.636Z,0.5
2022-11-19T00:28:35.311Z,0.6
2022-11-19T00:29:45.016Z,0.4
2022-11-19T00:30:54.704Z,0.5
2022-11-19T00:32:04.399Z,0.7
2022-11-19T00:33:14.196Z,0.8
2022-11-19T00:34:22.884Z,0.5
2022-11-19T00:35:32.629Z,0.5
2022-11-19T00:36:40.287Z,0.4
2022-11-19T00:37:48.952Z,0.6
2022-11-19T00:38:58.667Z,0.5
2022-11-19T00:40:07.354Z,0.6
2022-11-19T00:41:17.061Z,0.4
2022-11-19T00:42:24.715Z,0.5
2022-11-19T00:43:33.404Z,0.6
2022-11-19T00:44:43.083Z,0.7
2022-11-19T00:45:50.759Z,0.4
2022-11-19T00:47:00.461Z,0.4
2022-11-19T00:48:09.160Z,0.6
2022-11-19T00:49:18.992Z,0.6
2022-11-19T00:50:28.502Z,0.7
2022-11-19T00:51:37.162Z,0.7
2022-11-19T00:52:45.821Z,0.8
2022-11-19T00:53:55.496Z,0.8
2022-11-19T00:55:05.161Z,0.7
2022-11-19T00:56:13.879Z,0.6
2022-11-19T00:57:23.559Z,0.7
2022-11-19T00:58:32.243Z,0.6
2022-11-19T00:59:41.925Z,0.7
2022-11-19T01:00:50.614Z,0.6
2022-11-19T01:01:58.299Z,0.6
2022-11-19T01:03:07.981Z,0.7
2022-11-19T01:04:16.696Z,0.5
2022-11-19T01:05:25.343Z,0.5
2022-11-19T01:06:35.017Z,0.5
2022-11-19T01:07:42.715Z,0.6
2022-11-19T01:08:52.393Z,0.6
2022-11-19T01:10:02.094Z,0.4
2022-11-19T01:11:11.775Z,0.5
2022-11-19T01:12:21.453Z,0.7
2022-11-19T01:13:29.151Z,0.7
2022-11-19T01:14:38.819Z,0.5
2022-11-19T01:15:47.503Z,0.7
2022-11-19T01:16:56.172Z,0.6
2022-11-19T01:18:05.863Z,0.7
2022-11-19T01:19:16.104Z,0.6
2022-11-19T01:20:24.831Z,0.8
2022-11-19T01:21:34.429Z,0.8
2022-11-19T01:22:42.109Z,0.6
2022-11-19T01:23:51.875Z,0.6
2022-11-19T01:24:59.594Z,0.8
2022-11-19T01:26:09.304Z,0.8
2022-11-19T01:27:18.985Z,0.8
2022-11-19T01:28:27.649Z,0.7
2022-11-19T01:29:37.327Z,0.8
2022-11-19T01:30:47.035Z,0.7
2022-11-19T01:31:55.725Z,0.6
2022-11-19T01:33:05.437Z,0.7
2022-11-19T01:34:15.122Z,0.8
2022-11-19T01:35:24.805Z,0.7
2022-11-19T01:36:34.550Z,0.7
2022-11-19T01:37:42.227Z,0.6
2022-11-19T01:38:51.991Z,0.6
2022-11-19T01:40:01.598Z,0.7
2022-11-19T01:41:09.275Z,0.7
2022-11-19T01:42:19.011Z,0.6
2022-11-19T01:43:26.677Z,0.7
2022-11-19T01:44:36.358Z,0.5
2022-11-19T01:45:46.011Z,0.5
2022-11-19T01:46:53.677Z,0.6
2022-11-19T01:48:03.367Z,0.6
2022-11-19T01:49:12.022Z,0.6
2022-11-19T01:50:20.688Z,0.8
2022-11-19T01:51:30.345Z,0.6
2022-11-19T01:52:40.058Z,0.6
2022-11-19T01:53:48.746Z,0.6
2022-11-19T01:54:58.428Z,0.8
2022-11-19T01:56:08.119Z,0.6
2022-11-19T01:57:17.794Z,0.6
2022-11-19T01:58:27.479Z,0.7
2022-11-19T01:59:37.197Z,0.5
2022-11-19T02:00:46.885Z,0.7
2022-11-19T02:01:55.590Z,0.7
2022-11-19T02:03:05.258Z,0.6
2022-11-19T02:04:14.945Z,0.6
2022-11-19T02:05:24.646Z,0.5
2022-11-19T02:06:34.373Z,0.7
2022-11-19T02:07:44.065Z,0.6
2022-11-19T02:08:51.694Z,0.5
2022-11-19T02:10:01.427Z,0.6
2022-11-19T02:11:10.131Z,0.6
2022-11-19T02:12:19.796Z,0.5
2022-11-19T02:13:29.463Z,0.7
2022-11-19T02:14:37.144Z,0.5
2022-11-19T02:15:46.815Z,0.5
2022-11-19T02:16:56.540Z,0.5
2022-11-19T02:18:05.199Z,0.5
2022-11-19T02:19:14.853Z,0.4
2022-11-19T02:20:22.529Z,0.7
2022-11-19T02:21:31.200Z,0.5
2022-11-19T02:22:40.878Z,0.4
2022-11-19T02:23:50.548Z,0.7
2022-11-19T02:25:00.216Z,0.7
2022-11-19T02:26:08.887Z,0.5
2022-11-19T02:27:18.556Z,0.4
2022-11-19T02:28:28.268Z,0.6
2022-11-19T02:29:37.969Z,0.9
2022-11-19T02:30:47.651Z,0.6
2022-11-19T02:31:57.347Z,0.7
2022-11-19T02:33:06.034Z,0.6
2022-11-19T02:34:15.835Z,0.5
2022-11-19T02:35:25.493Z,0.6
2022-11-19T02:36:34.168Z,0.6
2022-11-19T02:37:43.839Z,0.6
2022-11-19T02:38:52.514Z,0.6
2022-11-19T02:40:01.363Z,0.4
2022-11-19T02:41:11.028Z,0.7
2022-11-19T02:42:18.694Z,0.6
2022-11-19T02:43:28.376Z,0.6
2022-11-19T02:44:37.046Z,0.6
2022-11-19T02:45:45.837Z,0.5
2022-11-19T02:46:55.511Z,0.6
2022-11-19T02:48:03.177Z,0.4
2022-11-19T02:49:11.847Z,0.8
2022-11-19T02:50:21.541Z,0.5
2022-11-19T02:51:29.238Z,0.6
2022-11-19T02:52:38.911Z,1.1
2022-11-19T02:53:47.571Z,0.6
2022-11-19T02:54:56.251Z,0.6
2022-11-19T02:56:06.002Z,0.6
2022-11-19T02:57:13.677Z,0.7
2022-11-19T02:58:22.345Z,0.6
2022-11-19T02:59:32.032Z,0.6
2022-11-19T03:00:39.820Z,0.6
2022-11-19T03:01:49.527Z,0.6
2022-11-19T03:02:59.197Z,0.6
2022-11-19T03:04:08.888Z,0.6
2022-11-19T03:05:18.587Z,0.5
2022-11-19T03:06:27.249Z,0.6
2022-11-19T03:07:35.957Z,0.6
2022-11-19T03:08:45.607Z,0.8
2022-11-19T03:09:55.294Z,0.6
2022-11-19T03:11:04.979Z,0.7
2022-11-19T03:12:13.679Z,0.5
2022-11-19T03:13:23.345Z,0.6
2022-11-19T03:14:32.052Z,0.6
2022-11-19T03:15:39.723Z,0.7
2022-11-19T03:16:49.399Z,0.6
2022-11-19T03:17:59.091Z,0.7
2022-11-19T03:19:07.789Z,0.6
2022-11-19T03:20:17.484Z,0.8
2022-11-19T03:21:26.148Z,0.5
2022-11-19T03:22:35.841Z,0.4
2022-11-19T03:23:44.582Z,0.7
2022-11-19T03:24:52.253Z,0.6
2022-11-19T03:26:01.970Z,0.7
2022-11-19T03:27:10.660Z,0.7
2022-11-19T03:28:19.377Z,0.6
2022-11-19T03:29:29.037Z,0.5
2022-11-19T03:30:36.694Z,0.6
2022-11-19T03:31:46.398Z,0.6
2022-11-19T03:32:55.090Z,0.6
2022-11-19T03:34:04.813Z,0.6
2022-11-19T03:35:14.519Z,0.6
2022-11-19T03:36:24.194Z,0.6
2022-11-19T03:37:32.906Z,0.6
2022-11-19T03:38:42.608Z,0.6
2022-11-19T03:39:50.315Z,0.6
2022-11-19T03:41:00.014Z,0.7
2022-11-19T03:42:09.682Z,0.6
2022-11-19T03:43:17.360Z,0.6
2022-11-19T03:44:27.139Z,0.6
2022-11-19T03:45:35.738Z,0.7
2022-11-19T03:46:44.397Z,0.7
2022-11-19T03:47:55.090Z,0.6
2022-11-19T03:49:02.887Z,0.4
2022-11-19T03:50:12.638Z,0.8
2022-11-19T03:51:21.308Z,0.5
2022-11-19T03:52:30.974Z,0.6
2022-11-19T03:53:40.650Z,0.6
2022-11-19T03:54:49.323Z,0.7
2022-11-19T03:55:58.004Z,0.5
2022-11-19T03:57:07.709Z,0.5
2022-11-19T03:58:17.396Z,0.7
2022-11-19T03:59:29.757Z,0.6
2022-11-19T04:00:35.755Z,0.7
2022-11-19T04:01:43.411Z,0.8
2022-11-19T04:02:53.058Z,0.5
2022-11-19T04:04:01.723Z,0.6
2022-11-19T04:05:10.425Z,0.6
2022-11-19T04:06:20.165Z,0.5
2022-11-19T04:07:28.849Z,0.5
2022-11-19T04:08:38.495Z,0.6
2022-11-19T04:09:47.150Z,0.7
2022-11-19T04:10:56.853Z,0.5
2022-11-19T04:12:06.564Z,0.9
2022-11-19T04:13:15.226Z,0.4
2022-11-19T04:14:24.895Z,0.6
2022-11-19T04:15:34.560Z,0.5
2022-11-19T04:16:43.261Z,0.6
2022-11-19T04:17:52.921Z,0.6
2022-11-19T04:19:01.588Z,0.4
2022-11-19T04:20:10.337Z,0.5
2022-11-19T04:21:20.014Z,0.6
2022-11-19T04:22:28.705Z,0.7
2022-11-19T04:23:38.407Z,0.6
2022-11-19T04:24:48.093Z,0.5
2022-11-19T04:25:55.756Z,0.6
2022-11-19T04:27:05.460Z,0.6
2022-11-19T04:28:14.206Z,0.6
2022-11-19T04:29:22.910Z,0.5
2022-11-19T04:30:32.579Z,0.5
2022-11-19T04:31:42.261Z,0.6
2022-11-19T04:32:50.992Z,0.5
2022-11-19T04:34:00.611Z,0.5
2022-11-19T04:35:09.339Z,0.4
2022-11-19T04:36:19.081Z,0.7
2022-11-19T04:37:27.753Z,0.6
2022-11-19T04:38:36.456Z,0.4
2022-11-19T04:39:46.152Z,0.6
2022-11-19T04:40:53.858Z,0.5
2022-11-19T04:42:03.545Z,0.5
2022-11-19T04:43:13.408Z,0.7
2022-11-19T04:44:22.093Z,0.7
2022-11-19T04:45:30.781Z,0.6
2022-11-19T04:46:39.491Z,0.7
2022-11-19T04:47:47.181Z,0.5
2022-11-19T04:48:56.922Z,0.6
2022-11-19T04:50:05.570Z,0.8
2022-11-19T04:51:14.271Z,0.6
2022-11-19T04:52:24.085Z,0.9
2022-11-19T04:53:31.739Z,0.7
2022-11-19T04:54:41.411Z,0.7
2022-11-19T04:55:50.078Z,0.6
2022-11-19T04:56:58.746Z,0.7
2022-11-19T04:58:08.458Z,0.7
2022-11-19T04:59:17.252Z,0.6
2022-11-19T05:00:25.816Z,0.6
2022-11-19T05:01:35.608Z,0.5
2022-11-19T05:02:45.256Z,0.7
2022-11-19T05:03:54.976Z,0.8
2022-11-19T05:05:04.708Z,0.6
2022-11-19T05:06:13.373Z,0.9
2022-11-19T05:07:23.172Z,0.6
2022-11-19T05:08:30.739Z,0.7
2022-11-19T05:09:40.435Z,0.6
2022-11-19T05:10:48.118Z,0.6
2022-11-19T05:11:56.822Z,0.6
2022-11-19T05:13:06.488Z,0.6
2022-11-19T05:14:14.163Z,0.6
2022-11-19T05:15:23.886Z,0.6
2022-11-19T05:16:32.583Z,0.5
2022-11-19T05:17:40.263Z,0.6
2022-11-19T05:18:49.929Z,0.5
2022-11-19T05:19:59.609Z,0.6
2022-11-19T05:21:08.324Z,0.7
2022-11-19T05:22:17.976Z,0.6
2022-11-19T05:23:27.645Z,0.6
2022-11-19T05:24:37.311Z,0.7
2022-11-19T05:25:45.974Z,0.5
2022-11-19T05:26:54.653Z,0.6
2022-11-19T05:28:04.364Z,0.7
2022-11-19T05:29:12.040Z,0.6
2022-11-19T05:30:20.738Z,0.5
2022-11-19T05:31:30.399Z,0.7
2022-11-19T05:32:39.113Z,0.7
2022-11-19T05:33:48.795Z,0.8
2022-11-19T05:34:57.472Z,0.6
2022-11-19T05:36:06.155Z,0.6
2022-11-19T05:37:15.910Z,0.7
2022-11-19T05:38:24.583Z,0.7
2022-11-19T05:39:33.289Z,0.6
2022-11-19T05:40:42.988Z,0.5
2022-11-19T05:41:51.688Z,0.4
2022-11-19T05:43:01.410Z,0.5
2022-11-19T05:44:10.166Z,0.3
2022-11-19T05:45:17.860Z,0.5
2022-11-19T05:46:26.609Z,0.4
2022-11-19T05:47:35.280Z,0.3
2022-11-19T05:48:43.956Z,0.3
2022-11-19T05:49:53.645Z,0.5
2022-11-19T05:51:03.329Z,0.4
2022-11-19T05:52:13.027Z,0.4
2022-11-19T05:53:21.753Z,0.5
2022-11-19T05:54:29.400Z,0.5
2022-11-19T05:55:39.056Z,0.3
2022-11-19T05:56:47.717Z,0.4
2022-11-19T05:57:56.389Z,0.4
2022-11-19T05:59:06.058Z,0.6
2022-11-19T06:00:13.718Z,0.6
2022-11-19T06:01:23.412Z,0.4
2022-11-19T06:02:32.147Z,0.5
2022-11-19T06:03:40.734Z,0.5
2022-11-19T06:04:50.421Z,0.5
2022-11-19T06:05:58.081Z,0.5
2022-11-19T06:07:07.828Z,0.6
2022-11-19T06:08:17.465Z,0.4
2022-11-19T06:09:26.148Z,0.5
2022-11-19T06:10:35.797Z,0.6
2022-11-19T06:11:44.464Z,0.6
2022-11-19T06:12:53.158Z,0.5
2022-11-19T06:14:02.860Z,0.5
2022-11-19T06:15:11.540Z,0.5
2022-11-19T06:16:20.232Z,0.5
2022-11-19T06:17:29.932Z,0.5
2022-11-19T06:18:38.660Z,0.6
2022-11-19T06:19:48.322Z,0.7
2022-11-19T06:20:56.979Z,0.7
2022-11-19T06:22:04.666Z,0.5
2022-11-19T06:23:14.326Z,0.6
2022-11-19T06:24:24.058Z,0.6
2022-11-19T06:25:32.741Z,0.6
2022-11-19T06:26:42.415Z,0.6
2022-11-19T06:27:50.080Z,0.7
2022-11-19T06:28:59.742Z,0.5
2022-11-19T06:30:08.450Z,0.6
2022-11-19T06:31:16.098Z,0.5
2022-11-19T06:32:24.761Z,0.6
2022-11-19T06:33:34.542Z,0.5
2022-11-19T06:34:43.199Z,0.7
2022-11-19T06:35:52.891Z,0.7
2022-11-19T06:37:02.550Z,0.6
2022-11-19T06:38:12.224Z,0.8
2022-11-19T06:39:22.178Z,0.5
2022-11-19T06:40:30.605Z,0.6
2022-11-19T06:41:40.514Z,0.4
2022-11-19T06:42:51.034Z,0.6
2022-11-19T06:43:58.643Z,0.4
2022-11-19T06:45:08.302Z,0.5
2022-11-19T06:46:17.983Z,0.4
2022-11-19T06:47:27.703Z,0.4
2022-11-19T06:48:37.371Z,0.4
2022-11-19T06:49:45.023Z,0.5
2022-11-19T06:50:54.688Z,0.4
2022-11-19T06:52:03.367Z,0.6
2022-11-19T06:53:12.074Z,0.5
2022-11-19T06:54:21.778Z,0.3
2022-11-19T06:55:31.448Z,0.5
2022-11-19T06:56:41.115Z,0.5
2022-11-19T06:57:49.815Z,0.6
2022-11-19T06:58:58.584Z,0.7
2022-11-19T07:00:08.247Z,0.4
2022-11-19T07:01:15.982Z,0.3
2022-11-19T07:02:25.666Z,0.5
2022-11-19T07:03:35.314Z,0.4
2022-11-19T07:04:42.993Z,0.5
2022-11-19T07:05:52.670Z,0.5
2022-11-19T07:06:59.409Z,0.4
2022-11-19T07:08:09.015Z,0.4
2022-11-19T07:09:17.997Z,0.5
2022-11-19T07:10:24.394Z,0.5
2022-11-19T07:11:34.080Z,0.4
2022-11-19T07:12:43.750Z,0.4
2022-11-19T07:13:52.602Z,0.5
2022-11-19T10:11:46.016Z,0
2022-11-19T10:12:53.656Z,0
2022-11-19T10:14:03.328Z,0
2022-11-19T10:15:12.995Z,0
2022-11-19T10:16:21.649Z,0
2022-11-19T10:17:31.357Z,0
2022-11-19T10:18:39.007Z,0
2022-11-19T10:19:47.658Z,0
2022-11-19T10:20:57.317Z,0
2022-11-19T10:22:04.967Z,0
2022-11-19T10:23:14.654Z,0
2022-11-19T10:24:23.449Z,0
2022-11-19T10:25:32.961Z,0
2022-11-19T10:26:42.723Z,0
2022-11-19T10:27:53.397Z,0
2022-11-19T10:29:02.051Z,0
2022-11-19T10:30:11.708Z,0
2022-11-19T10:31:21.371Z,0
2022-11-19T10:32:31.043Z,0
2022-11-19T10:33:39.788Z,0
2022-11-19T10:34:49.481Z,0
2022-11-19T10:35:59.134Z,0
2022-11-19T10:37:09.308Z,0
2022-11-19T10:38:18.993Z,0
2022-11-19T10:39:28.691Z,0
2022-11-19T10:40:38.379Z,0
2022-11-19T10:41:47.039Z,0
2022-11-19T10:42:56.720Z,0
2022-11-19T10:44:05.349Z,0
2022-11-19T10:45:17.782Z,0
2022-11-19T10:46:27.459Z,0
2022-11-19T10:47:37.116Z,0
2022-11-19T10:48:46.797Z,0
2022-11-19T10:49:55.457Z,0
2022-11-19T10:51:05.122Z,0
2022-11-19T10:52:13.787Z,0
2022-11-19T10:53:21.441Z,0
2022-11-19T10:54:31.103Z,0
2022-11-19T10:55:38.812Z,0
2022-11-19T10:56:48.534Z,0
2022-11-19T10:57:58.288Z,0
2022-11-19T10:59:07.956Z,0
2022-11-19T11:00:17.594Z,0
2022-11-19T11:01:25.311Z,0
2022-11-19T11:02:34.910Z,0
2022-11-19T11:03:43.589Z,0
2022-11-19T11:04:53.246Z,0
2022-11-19T11:06:02.920Z,0
2022-11-19T11:07:11.587Z,0
2022-11-19T11:08:19.240Z,0
2022-11-19T11:09:28.923Z,0
2022-11-19T11:10:36.574Z,0
2022-11-19T11:11:46.229Z,0
2022-11-19T11:12:54.892Z,0
2022-11-19T11:14:03.580Z,0
2022-11-19T11:15:13.584Z,0
2022-11-19T11:16:21.222Z,0
2022-11-19T11:17:29.905Z,0
2022-11-19T11:18:39.590Z,0
2022-11-19T11:19:48.261Z,0
2022-11-19T11:20:57.936Z,0
2022-11-19T11:22:06.615Z,0
2022-11-19T11:23:15.359Z,0
2022-11-19T11:24:25.083Z,0
2022-11-19T11:25:32.738Z,0
2022-11-19T11:26:41.447Z,0
2022-11-19T11:27:51.099Z,0
2022-11-19T11:28:59.158Z,0
2022-11-19T11:30:08.830Z,0
2022-11-19T11:31:16.528Z,0
2022-11-19T11:32:25.179Z,0
2022-11-19T11:33:34.861Z,0
2022-11-19T11:34:43.808Z,0
2022-11-19T11:35:53.241Z,0
2022-11-19T11:37:02.889Z,0
2022-11-19T11:38:11.598Z,0
2022-11-19T11:39:21.482Z,0
2022-11-19T11:40:29.922Z,0
2022-11-19T11:42:50.432Z,0
2022-11-19T11:43:59.131Z,0
2022-11-19T11:45:08.883Z,0
2022-11-19T11:46:18.585Z,0
2022-11-19T11:47:27.237Z,0
2022-11-19T11:48:36.909Z,0
2022-11-19T11:49:46.592Z,0
2022-11-19T11:50:55.255Z,0
2022-11-19T11:52:04.936Z,0
2022-11-19T11:53:14.649Z,0
2022-11-19T11:54:24.347Z,0
2022-11-19T11:55:34.079Z,0
2022-11-19T11:56:42.773Z,0
2022-11-19T11:57:52.444Z,0
2022-11-19T11:59:01.104Z,0
2022-11-19T12:00:08.761Z,0
2022-11-19T12:01:18.462Z,0
2022-11-19T12:02:28.161Z,0
2022-11-19T12:03:54.275Z,0
2022-11-19T12:04:48.425Z,0
2022-11-19T12:05:58.122Z,0
2022-11-19T12:07:07.848Z,0
2022-11-19T12:08:17.473Z,0
2022-11-19T12:09:27.162Z,0
2022-11-19T12:10:36.975Z,0
2022-11-19T12:11:45.599Z,0
2022-11-19T12:12:54.314Z,0
2022-11-19T12:14:08.123Z,0
2022-11-19T12:15:12.621Z,0
2022-11-19T12:16:22.334Z,0
2022-11-19T12:17:32.037Z,0
2022-11-19T12:18:40.967Z,0
2022-11-19T12:19:50.642Z,0
2022-11-19T12:21:00.312Z,0
2022-11-19T12:22:08.991Z,0
2022-11-19T12:23:18.658Z,0
2022-11-19T12:24:28.363Z,0
2022-11-19T12:25:38.045Z,0
2022-11-19T12:26:46.709Z,0
2022-11-19T12:27:55.587Z,0
2022-11-19T12:29:05.308Z,0
2022-11-19T12:30:16.705Z,0
2022-11-19T12:31:29.855Z,0
2022-11-19T12:32:36.047Z,0
2022-11-19T12:33:44.684Z,0
2022-11-19T12:34:54.356Z,0
2022-11-19T12:36:03.197Z,0
2022-11-19T12:37:10.907Z,0
2022-11-19T12:38:20.580Z,0
2022-11-19T12:39:30.257Z,0
2022-11-19T12:40:41.580Z,0
2022-11-19T12:41:49.579Z,0
2022-11-19T12:42:59.263Z,0
2022-11-19T12:44:08.966Z,0
2022-11-19T12:45:17.628Z,0
2022-11-19T12:46:26.289Z,0
2022-11-19T12:47:38.497Z,0
2022-11-19T12:48:46.683Z,0
2022-11-19T12:49:56.332Z,0
2022-11-19T12:51:06.006Z,0
2022-11-19T12:52:13.660Z,0
2022-11-19T12:53:23.350Z,0
2022-11-19T12:54:35.120Z,0
2022-11-19T12:55:43.655Z,0
2022-11-19T12:56:52.323Z,0
2022-11-19T12:58:00.978Z,0
2022-11-19T12:59:10.683Z,0
2022-11-19T13:00:20.437Z,0
2022-11-19T13:01:29.123Z,0
2022-11-19T13:02:38.761Z,0
2022-11-19T13:03:47.424Z,0
2022-11-19T13:04:57.134Z,0
2022-11-19T13:06:06.790Z,0
2022-11-19T13:07:14.510Z,0
2022-11-19T13:08:24.143Z,0
2022-11-19T13:09:31.808Z,0
2022-11-19T13:10:41.506Z,0
2022-11-19T13:11:51.212Z,0
2022-11-19T13:12:58.866Z,0
2022-11-19T13:14:08.555Z,0
2022-11-19T13:15:18.224Z,0
2022-11-19T13:16:26.666Z,0
2022-11-19T13:17:36.304Z,0
2022-11-19T13:18:43.989Z,0
2022-11-19T13:19:52.669Z,0
2022-11-19T13:21:02.438Z,0
2022-11-19T13:22:12.090Z,0
2022-11-19T13:23:21.809Z,0
2022-11-19T13:24:31.498Z,0
2022-11-19T13:25:40.157Z,0
2022-11-19T13:26:50.824Z,0
2022-11-19T13:27:59.534Z,0
2022-11-19T13:29:08.223Z,0
2022-11-19T13:30:17.910Z,0
2022-11-19T13:31:25.666Z,0
2022-11-19T13:32:35.295Z,0
2022-11-19T13:33:43.947Z,0
2022-11-19T13:34:52.630Z,0
2022-11-19T13:36:02.293Z,0
2022-11-19T13:37:11.992Z,0
2022-11-19T13:38:21.670Z,0
2022-11-19T13:39:32.295Z,0
2022-11-19T13:40:41.962Z,0
2022-11-19T13:41:51.634Z,0
2022-11-19T13:43:25.308Z,0
2022-11-19T13:44:10.956Z,0
2022-11-19T13:45:20.679Z,0
2022-11-19T13:46:30.368Z,0
2022-11-19T13:47:39.048Z,0
2022-11-19T13:48:48.734Z,0
2022-11-19T13:49:56.398Z,0
2022-11-19T13:51:05.076Z,0
2022-11-19T13:52:14.796Z,0
2022-11-19T13:53:23.441Z,0
2022-11-19T13:54:33.117Z,0
2022-11-19T13:55:41.797Z,0
2022-11-19T13:56:52.492Z,0
2022-11-19T13:58:02.149Z,0
2022-11-19T13:59:09.789Z,0
2022-11-19T14:00:19.509Z,0
2022-11-19T14:01:28.250Z,0
2022-11-19T14:02:36.922Z,0
2022-11-19T14:03:46.598Z,0
2022-11-19T14:04:55.276Z,0
2022-11-19T14:06:06.068Z,0
2022-11-19T14:07:15.852Z,0
2022-11-19T14:08:25.519Z,0
2022-11-19T14:09:35.166Z,0
2022-11-19T14:10:46.533Z,0
2022-11-19T14:11:56.202Z,0
2022-11-19T14:13:05.916Z,0
2022-11-19T14:14:14.641Z,0
2022-11-19T14:15:24.313Z,0
2022-11-19T14:16:34.128Z,0
2022-11-19T14:17:41.676Z,0
2022-11-19T14:18:54.471Z,0
2022-11-19T14:19:59.999Z,0
2022-11-19T14:21:08.662Z,0
2022-11-19T14:22:18.337Z,0
2022-11-19T14:23:28.032Z,0
2022-11-19T14:24:36.741Z,0
2022-11-19T14:25:46.557Z,0
2022-11-19T14:26:56.206Z,0
2022-11-19T14:28:05.896Z,0
2022-11-19T14:29:14.553Z,0
2022-11-19T14:30:22.215Z,0
2022-11-19T14:31:31.905Z,0
2022-11-19T14:32:45.487Z,0
2022-11-19T14:33:52.254Z,0
2022-11-19T14:35:01.937Z,0
2022-11-19T14:36:11.627Z,0
2022-11-19T14:37:21.328Z,0
2022-11-19T14:38:29.982Z,0
2022-11-19T14:39:38.661Z,0
2022-11-19T14:40:48.342Z,0
2022-11-19T14:41:56.989Z,0
2022-11-19T14:43:06.699Z,0
2022-11-19T14:44:16.389Z,0
2022-11-19T14:45:26.082Z,0
2022-11-19T14:46:35.742Z,0
2022-11-19T14:47:45.428Z,0
2022-11-19T14:48:55.156Z,0
2022-11-19T14:50:04.990Z,0
2022-11-19T14:51:14.535Z,0
2022-11-19T14:52:24.214Z,0
2022-11-19T14:53:33.889Z,0
2022-11-19T14:54:43.791Z,0
2022-11-19T14:55:53.509Z,0
2022-11-19T14:57:02.313Z,0
2022-11-19T14:58:11.864Z,0
2022-11-19T14:59:20.543Z,0
2022-11-19T15:00:28.247Z,0
2022-11-19T15:01:37.911Z,0
2022-11-19T15:02:46.583Z,0
2022-11-19T15:03:56.363Z,0
2022-11-19T15:05:06.027Z,0
2022-11-19T15:06:14.717Z,0
2022-11-19T15:07:24.408Z,0
2022-11-19T15:08:33.063Z,0
2022-11-19T15:09:41.739Z,0
2022-11-19T15:10:51.405Z,0
2022-11-19T15:12:00.121Z,0
2022-11-19T15:13:07.756Z,0
2022-11-19T15:14:17.743Z,0
2022-11-19T15:15:26.096Z,0
2022-11-19T15:16:35.776Z,0
2022-11-19T15:17:44.493Z,0
2022-11-19T15:18:54.163Z,0
2022-11-19T15:20:03.876Z,0
2022-11-19T15:21:11.504Z,0
2022-11-19T15:22:21.221Z,0
2022-11-19T15:23:30.926Z,0
2022-11-19T15:24:38.599Z,0
2022-11-19T15:25:48.279Z,0
2022-11-19T15:26:57.952Z,0
2022-11-19T15:28:05.687Z,0
2022-11-19T15:29:16.464Z,0
2022-11-19T15:30:26.192Z,0
2022-11-19T15:31:35.862Z,0
2022-11-19T15:32:45.525Z,0
2022-11-19T15:33:54.364Z,0
2022-11-19T15:35:10.660Z,0
2022-11-19T15:36:13.704Z,0
2022-11-19T15:37:22.375Z,0
2022-11-19T15:38:32.083Z,0
2022-11-19T15:39:39.772Z,0
2022-11-19T15:40:49.467Z,0
2022-11-19T15:41:59.138Z,0
2022-11-19T15:43:08.967Z,0
2022-11-19T15:44:18.505Z,0
2022-11-19T15:45:28.180Z,0
2022-11-19T15:46:37.880Z,0
2022-11-19T15:47:47.568Z,0
2022-11-19T15:48:56.266Z,0
2022-11-19T15:50:04.965Z,0
2022-11-19T15:51:14.629Z,0
2022-11-19T15:52:23.333Z,0
2022-11-19T15:53:33.010Z,0
2022-11-19T15:54:42.697Z,0
2022-11-19T15:55:52.420Z,0
2022-11-19T15:57:02.110Z,0
2022-11-19T15:58:11.807Z,0
2022-11-19T15:59:21.831Z,0
2022-11-19T16:00:31.169Z,0
2022-11-19T16:01:40.952Z,0
2022-11-19T16:02:50.583Z,0
2022-11-19T16:04:00.424Z,0
2022-11-19T16:05:09.139Z,0
2022-11-19T16:06:18.827Z,0
2022-11-19T16:07:28.565Z,0
2022-11-19T16:08:38.180Z,0
2022-11-19T16:09:47.863Z,0
2022-11-19T16:10:57.629Z,0
2022-11-19T16:12:07.317Z,0
2022-11-19T16:13:16.982Z,0
2022-11-19T16:14:26.495Z,0
2022-11-19T16:15:36.155Z,0
2022-11-19T16:16:44.852Z,0
2022-11-19T16:17:53.526Z,0
2022-11-19T16:19:03.200Z,0
2022-11-19T16:20:10.963Z,0
2022-11-19T16:21:20.567Z,0
2022-11-19T16:22:29.221Z,0
2022-11-19T16:23:38.886Z,0
2022-11-19T16:24:48.546Z,0
2022-11-19T16:26:00.171Z,0
2022-11-19T16:27:09.791Z,0
2022-11-19T16:28:19.462Z,0
2022-11-19T16:29:28.131Z,0
2022-11-19T16:30:37.844Z,0
2022-11-19T16:31:47.482Z,0
2022-11-19T16:32:57.230Z,0
2022-11-19T16:34:06.902Z,0
2022-11-19T16:35:14.574Z,0
2022-11-19T16:36:24.253Z,0
2022-11-19T16:37:33.934Z,0
2022-11-19T16:38:43.668Z,0
2022-11-19T16:39:52.341Z,0
2022-11-19T16:41:00.992Z,0
2022-11-19T16:42:14.250Z,0
2022-11-19T16:43:21.404Z,0
2022-11-19T16:44:30.102Z,0
2022-11-19T16:45:39.769Z,0
2022-11-19T16:46:49.584Z,0
2022-11-19T16:47:58.123Z,0
2022-11-19T16:49:07.806Z,0
2022-11-19T16:50:16.515Z,0
2022-11-19T16:51:25.197Z,0
2022-11-19T16:52:33.858Z,0
2022-11-19T16:53:43.528Z,0
2022-11-19T16:54:53.242Z,0
2022-11-19T16:56:02.970Z,0
2022-11-19T16:57:12.656Z,0
2022-11-19T16:58:22.332Z,0
2022-11-19T16:59:31.006Z,0
2022-11-19T17:00:39.677Z,0
2022-11-19T17:01:48.376Z,0
2022-11-19T17:02:58.067Z,0
2022-11-19T17:04:07.749Z,0
2022-11-19T17:05:15.409Z,0
2022-11-19T17:06:24.110Z,0
2022-11-19T17:07:33.809Z,0
2022-11-19T17:08:42.524Z,0
2022-11-19T17:09:52.171Z,0
2022-11-19T17:10:59.859Z,0
2022-11-19T17:12:10.147Z,0
2022-11-19T17:13:19.839Z,0
2022-11-19T17:14:27.520Z,0
2022-11-19T17:15:36.177Z,0
2022-11-19T17:16:48.328Z,0
2022-11-19T17:17:57.983Z,0
2022-11-19T17:19:07.694Z,0
2022-11-19T17:20:17.338Z,0
2022-11-19T17:21:24.987Z,0
2022-11-19T17:22:34.659Z,0
2022-11-19T17:23:43.375Z,0
2022-11-19T17:24:52.058Z,0
2022-11-19T17:26:01.860Z,0
2022-11-19T17:27:10.463Z,0
2022-11-19T17:28:20.124Z,0
2022-11-19T17:29:28.777Z,0
2022-11-19T17:30:36.452Z,0
2022-11-19T17:31:46.106Z,0
2022-11-19T17:32:53.755Z,0
2022-11-19T17:34:02.418Z,0
2022-11-19T17:35:12.125Z,0
2022-11-19T17:36:19.807Z,0
2022-11-19T17:37:29.456Z,0
2022-11-19T17:38:41.795Z,0
2022-11-19T17:39:50.460Z,0
2022-11-19T17:41:00.120Z,0
2022-11-19T17:42:07.808Z,0
2022-11-19T17:43:16.450Z,0
2022-11-19T17:44:26.136Z,0
2022-11-19T17:45:33.794Z,0
2022-11-19T17:46:43.469Z,0
2022-11-19T17:47:53.178Z,0
2022-11-19T17:49:01.834Z,0
2022-11-19T17:50:11.501Z,0
2022-11-19T17:51:19.184Z,0
2022-11-19T17:52:27.813Z,0
2022-11-19T17:53:37.508Z,0
2022-11-19T17:54:46.155Z,0
2022-11-19T17:55:55.818Z,0
2022-11-19T17:57:05.519Z,0
2022-11-19T17:58:14.174Z,0
2022-11-19T17:59:23.876Z,0
2022-11-19T18:00:33.528Z,0
2022-11-19T18:01:42.281Z,0
2022-11-19T18:02:51.910Z,0
2022-11-19T18:04:00.563Z,0
2022-11-19T18:05:10.248Z,0
2022-11-19T18:06:18.906Z,0
2022-11-19T18:07:28.640Z,0
2022-11-19T18:08:38.252Z,0
2022-11-19T18:09:45.921Z,0
2022-11-19T18:10:54.618Z,0
2022-11-19T18:12:04.320Z,0
2022-11-19T18:13:13.013Z,0
2022-11-19T18:14:22.661Z,0
2022-11-19T18:15:31.349Z,0
2022-11-19T18:16:40.033Z,0
2022-11-19T18:17:49.706Z,0
2022-11-19T18:18:59.387Z,0
2022-11-19T18:20:08.037Z,0
2022-11-19T18:21:17.685Z,0
2022-11-19T18:22:27.377Z,0
2022-11-19T18:23:37.118Z,0
2022-11-19T18:24:46.784Z,0
2022-11-19T18:25:55.448Z,0
2022-11-19T18:27:05.228Z,0
2022-11-19T18:28:13.918Z,0
2022-11-19T18:29:23.034Z,0
2022-11-19T18:30:32.230Z,0
2022-11-19T18:31:41.891Z,0
2022-11-19T18:32:51.564Z,0
2022-11-19T18:34:01.261Z,0
2022-11-19T18:35:09.903Z,0
2022-11-19T18:36:19.558Z,0
2022-11-19T18:37:28.239Z,0
2022-11-19T18:38:36.919Z,0
2022-11-19T18:39:46.767Z,0
2022-11-19T18:40:55.410Z,0
2022-11-19T18:42:05.110Z,0
2022-11-19T18:43:13.843Z,0
2022-11-19T18:44:23.512Z,0
2022-11-19T18:45:33.250Z,0
2022-11-19T18:46:41.917Z,0
2022-11-19T18:47:50.660Z,0
2022-11-19T18:49:00.331Z,0
2022-11-19T18:50:10.006Z,0
2022-11-19T18:51:19.769Z,0
2022-11-19T18:52:28.431Z,0
2022-11-19T18:53:38.106Z,0
2022-11-19T18:54:46.790Z,0
2022-11-19T18:55:55.561Z,0
2022-11-19T18:57:05.315Z,0
2022-11-19T18:58:13.965Z,0
2022-11-19T18:59:23.910Z,0
2022-11-19T19:00:33.286Z,0
2022-11-19T19:01:41.989Z,0
2022-11-19T19:02:51.668Z,0
2022-11-19T19:04:02.001Z,0
2022-11-19T19:05:10.043Z,0
2022-11-19T19:06:19.735Z,0
2022-11-19T19:07:29.487Z,0
2022-11-19T19:08:38.102Z,0
2022-11-19T19:09:47.761Z,0
2022-11-19T19:10:57.463Z,0
2022-11-19T19:12:11.327Z,0
2022-11-19T19:13:16.760Z,0
2022-11-19T19:14:26.467Z,0
2022-11-19T19:15:36.143Z,0
2022-11-19T19:16:43.863Z,0
2022-11-19T19:17:53.582Z,0
2022-11-19T19:19:02.260Z,0
2022-11-19T19:20:11.957Z,0
2022-11-19T19:21:21.628Z,0
2022-11-19T19:22:31.293Z,0
2022-11-19T19:23:40.031Z,0
2022-11-19T19:24:52.661Z,0
2022-11-19T19:25:58.388Z,0
2022-11-19T19:27:08.092Z,0
2022-11-19T19:28:17.738Z,0
2022-11-19T19:29:26.408Z,0